createdAt,value
2023-08-06T00:02:29.008Z,14.20
2023-08-06T00:05:38.641Z,15.90
2023-08-06T00:08:46.879Z,14.40
2023-08-06T00:11:54.928Z,14.30
2023-08-06T00:15:03.352Z,15.80
2023-08-06T00:18:12.379Z,14.60
2023-08-06T00:21:16.581Z,16.10
2023-08-06T00:24:24.705Z,15.10
2023-08-06T00:27:34.757Z,15.30
2023-08-06T00:30:42.885Z,16.30
2023-08-06T00:33:50.706Z,18.00
2023-08-06T00:37:00.736Z,14.40
2023-08-06T00:40:08.712Z,12.20
2023-08-06T00:43:17.246Z,17.80
2023-08-06T00:46:26.998Z,12.80
2023-08-06T00:49:34.777Z,14.60
2023-08-06T00:52:43.217Z,18.90
2023-08-06T00:55:51.336Z,14.80
2023-08-06T00:59:01.258Z,13.60
2023-08-06T01:02:09.406Z,15.10
2023-08-06T01:05:17.329Z,15.10
2023-08-06T01:08:28.620Z,13.50
2023-08-06T01:11:36.199Z,15.40
2023-08-06T01:14:44.939Z,13.80
2023-08-06T01:17:55.724Z,13.90
2023-08-06T01:21:03.316Z,17.80
2023-08-06T01:24:11.774Z,16.10
2023-08-06T01:27:21.913Z,18.50
2023-08-06T01:30:30.779Z,16.80
2023-08-06T01:33:38.324Z,16.80
2023-08-06T01:36:46.211Z,17.60
2023-08-06T01:39:56.786Z,17.40
2023-08-06T01:43:04.954Z,17.40
2023-08-06T01:46:12.729Z,14.40
2023-08-06T01:49:22.881Z,14.80
2023-08-06T01:52:30.777Z,14.20
2023-08-06T01:55:38.847Z,15.60
2023-08-06T01:58:48.110Z,16.30
2023-08-06T02:01:57.212Z,14.80
2023-08-06T02:05:05.314Z,14.40
2023-08-06T02:08:14.709Z,14.60
2023-08-06T02:11:23.232Z,15.40
2023-08-06T02:14:31.482Z,16.50
2023-08-06T02:17:41.751Z,15.40
2023-08-06T02:20:50.473Z,16.80
2023-08-06T02:23:58.478Z,15.70
2023-08-06T02:27:06.947Z,16.80
2023-08-06T02:30:16.318Z,15.80
2023-08-06T02:33:24.847Z,16.30
2023-08-06T02:36:33.072Z,16.60
2023-08-06T02:39:42.974Z,18.60
2023-08-06T02:42:50.824Z,16.10
2023-08-06T02:45:59.569Z,17.10
2023-08-06T02:49:08.569Z,16.40
2023-08-06T02:52:17.218Z,17.40
2023-08-06T02:55:25.526Z,17.80
2023-08-06T02:58:35.244Z,17.60
2023-08-06T03:01:43.049Z,16.20
2023-08-06T03:04:51.595Z,18.90
2023-08-06T03:07:59.926Z,18.60
2023-08-06T03:11:09.172Z,19.90
2023-08-06T03:14:17.654Z,17.90
2023-08-06T03:17:26.111Z,18.90
2023-08-06T03:20:35.411Z,19.80
2023-08-06T03:23:43.517Z,19.30
2023-08-06T03:26:50.871Z,17.80
2023-08-06T03:30:00.846Z,19.20
2023-08-06T03:33:08.619Z,20.00
2023-08-06T03:36:16.838Z,18.20
2023-08-06T03:39:26.391Z,19.10
2023-08-06T03:42:34.707Z,19.90
2023-08-06T03:45:44.633Z,19.80
2023-08-06T03:48:52.021Z,17.60
2023-08-06T03:52:01.735Z,19.00
2023-08-06T03:55:10.105Z,17.60
2023-08-06T03:58:17.575Z,17.80
2023-08-06T04:01:28.103Z,18.20
2023-08-06T04:04:35.864Z,17.90
2023-08-06T04:07:43.925Z,17.20
2023-08-06T04:10:53.766Z,16.40
2023-08-06T04:14:01.360Z,16.90
2023-08-06T04:17:09.945Z,18.80
2023-08-06T04:20:19.965Z,16.00
2023-08-06T04:23:29.175Z,16.60
2023-08-06T04:26:37.267Z,18.10
2023-08-06T04:29:45.615Z,15.70
2023-08-06T04:32:54.940Z,17.50
2023-08-06T04:36:02.790Z,16.50
2023-08-06T04:39:10.540Z,16.90
2023-08-06T04:42:20.073Z,15.90
2023-08-06T04:45:28.388Z,17.20
2023-08-06T04:48:36.657Z,15.10
2023-08-06T04:51:45.857Z,17.70
2023-08-06T04:54:54.374Z,17.20
2023-08-06T04:58:02.734Z,15.30
2023-08-06T05:01:11.660Z,15.70
2023-08-06T05:04:19.883Z,16.80
2023-08-06T05:07:28.565Z,14.70
2023-08-06T05:10:38.207Z,15.40
2023-08-06T05:13:45.664Z,14.00
2023-08-06T05:16:54.238Z,13.90
2023-08-06T05:20:02.427Z,13.80
2023-08-06T05:23:12.366Z,14.50
2023-08-06T05:26:20.972Z,14.10
2023-08-06T05:29:28.898Z,13.60
2023-08-06T05:32:37.893Z,13.00
2023-08-06T05:35:46.179Z,12.50
2023-08-06T05:38:54.093Z,13.30
2023-08-06T05:42:03.774Z,13.10
2023-08-06T05:45:12.429Z,10.60
2023-08-06T05:48:20.922Z,11.10
2023-08-06T05:51:29.974Z,9.90
2023-08-06T05:54:38.315Z,12.50
2023-08-06T05:57:46.061Z,9.90
2023-08-06T06:00:53.952Z,10.10
2023-08-06T06:04:03.407Z,9.70
2023-08-06T06:07:12.511Z,9.70
2023-08-06T06:10:20.265Z,9.60
2023-08-06T06:13:30.289Z,12.30
2023-08-06T06:16:38.589Z,10.00
2023-08-06T06:19:46.429Z,10.90
2023-08-06T06:22:56.137Z,10.00
2023-08-06T06:26:04.491Z,9.90
2023-08-06T06:29:13.633Z,9.50
2023-08-06T06:32:22.448Z,8.00
2023-08-06T06:35:32.043Z,8.50
2023-08-06T06:38:40.806Z,7.00
2023-08-06T06:41:48.694Z,7.00
2023-08-06T06:44:58.663Z,5.70
2023-08-06T06:48:06.525Z,5.90
2023-08-06T06:51:15.528Z,4.90
2023-08-06T06:54:24.923Z,4.30
2023-08-06T06:57:33.063Z,4.20
2023-08-06T07:00:40.936Z,5.00
2023-08-06T07:03:50.410Z,4.90
2023-08-06T07:06:57.903Z,4.20
2023-08-06T07:10:05.851Z,3.10
2023-08-06T07:13:15.903Z,2.90
2023-08-06T07:16:24.062Z,3.10
2023-08-06T07:19:31.569Z,2.90
2023-08-06T07:22:40.162Z,3.20
2023-08-06T07:25:49.107Z,2.90
2023-08-06T07:28:57.335Z,2.60
2023-08-06T07:32:05.189Z,1.70
2023-08-06T07:35:14.944Z,3.00
2023-08-06T07:38:22.793Z,2.10
2023-08-06T07:41:31.239Z,1.60
2023-08-06T07:44:40.200Z,1.90
2023-08-06T07:47:50.067Z,2.00
2023-08-06T07:50:58.502Z,1.90
2023-08-06T07:54:07.663Z,1.60
2023-08-06T07:57:16.232Z,1.70
2023-08-06T08:00:24.743Z,1.60
2023-08-06T08:03:34.629Z,1.50
2023-08-06T08:06:43.014Z,1.50
2023-08-06T08:09:51.562Z,1.30
2023-08-06T08:12:59.588Z,1.40
2023-08-06T08:16:09.285Z,1.60
2023-08-06T08:19:09.438Z,2.00
2023-08-06T08:22:17.622Z,1.60
2023-08-06T08:28:36.898Z,1.30
2023-08-06T08:31:44.520Z,1.40
2023-08-06T08:34:54.523Z,1.40
2023-08-06T08:38:02.423Z,1.10
2023-08-06T08:41:10.557Z,1.40
2023-08-06T08:44:18.623Z,1.60
2023-08-06T08:47:28.908Z,1.80
2023-08-06T08:50:36.895Z,1.30
2023-08-06T08:53:44.829Z,1.20
2023-08-06T08:56:54.068Z,1.60
2023-08-06T09:00:02.207Z,1.60
2023-08-06T09:03:10.566Z,1.30
2023-08-06T09:06:20.640Z,1.20
2023-08-06T09:09:28.275Z,1.10
2023-08-06T09:12:36.534Z,1.00
2023-08-06T09:15:46.521Z,1.30
2023-08-06T09:18:54.446Z,1.10
2023-08-06T09:22:02.873Z,1.20
2023-08-06T09:25:12.301Z,1.00
2023-08-06T09:28:20.564Z,1.20
2023-08-06T09:31:28.358Z,1.20
2023-08-06T09:34:36.715Z,1.30
2023-08-06T09:37:48.614Z,1.40
2023-08-06T09:40:46.947Z,1.00
2023-08-06T09:43:55.897Z,0.90
2023-08-06T09:47:04.592Z,1.10
2023-08-06T09:50:12.734Z,1.00
2023-08-06T09:53:21.351Z,1.10
2023-08-06T09:56:31.149Z,0.90
2023-08-06T09:59:40.164Z,0.90
2023-08-06T10:02:48.999Z,0.80
2023-08-06T10:05:58.762Z,0.80
2023-08-06T10:09:06.604Z,0.80
2023-08-06T10:12:14.941Z,0.80
2023-08-06T10:15:22.454Z,0.80
2023-08-06T10:18:32.235Z,0.90
2023-08-06T10:21:40.517Z,0.70
2023-08-06T10:24:48.855Z,0.90
2023-08-06T10:27:58.670Z,0.90
2023-08-06T10:31:06.777Z,1.00
2023-08-06T10:34:14.538Z,0.80
2023-08-06T10:37:24.276Z,0.90
2023-08-06T10:40:32.524Z,0.90
2023-08-06T10:43:41.573Z,1.00
2023-08-06T10:46:50.709Z,14.40
2023-08-06T10:49:59.261Z,1.20
2023-08-06T10:53:06.931Z,1.00
2023-08-06T10:56:15.115Z,1.60
2023-08-06T10:59:24.524Z,7.50
2023-08-06T11:02:32.928Z,2.10
2023-08-06T11:05:40.654Z,0.70
2023-08-06T11:08:50.454Z,0.90
2023-08-06T11:11:58.340Z,0.80
2023-08-06T11:15:06.133Z,0.80
2023-08-06T11:18:15.880Z,0.80
2023-08-06T11:21:23.521Z,0.70
2023-08-06T11:24:31.391Z,0.70
2023-08-06T11:27:41.664Z,0.70
2023-08-06T11:30:48.965Z,0.70
2023-08-06T11:33:57.447Z,0.70
2023-08-06T11:37:05.985Z,0.70
2023-08-06T11:40:15.117Z,0.70
2023-08-06T11:43:22.903Z,0.70
2023-08-06T11:46:31.134Z,0.80
2023-08-06T11:49:40.355Z,0.80
2023-08-06T11:52:48.696Z,0.80
2023-08-06T11:55:57.700Z,0.60
2023-08-06T11:59:07.116Z,0.70
2023-08-06T12:02:14.951Z,0.80
2023-08-06T12:05:23.392Z,0.70
2023-08-06T12:08:32.998Z,0.70
2023-08-06T12:11:41.145Z,0.70
2023-08-06T12:14:49.406Z,0.70
2023-08-06T12:17:59.304Z,0.80
2023-08-06T12:21:07.724Z,1.00
2023-08-06T12:24:15.835Z,0.70
2023-08-06T12:26:14.470Z,1.00
2023-08-06T12:29:15.494Z,0.80
2023-08-06T12:32:23.643Z,0.70
2023-08-06T12:35:32.284Z,0.80
2023-08-06T12:38:41.497Z,0.90
2023-08-06T12:41:49.499Z,1.00
2023-08-06T12:44:57.135Z,0.70
2023-08-06T12:48:05.461Z,0.60
2023-08-06T12:51:14.802Z,0.80
2023-08-06T12:54:23.634Z,0.60
2023-08-06T12:57:47.337Z,0.80
2023-08-06T13:00:37.601Z,0.70
2023-08-06T13:03:45.698Z,0.70
2023-08-06T13:06:53.859Z,1.00
2023-08-06T13:10:03.290Z,0.70
2023-08-06T13:13:11.458Z,0.80
2023-08-06T13:16:19.328Z,0.80
2023-08-06T13:19:28.583Z,0.80
2023-08-06T13:22:36.248Z,0.90
2023-08-06T13:25:44.780Z,0.90
2023-08-06T13:28:52.415Z,0.60
2023-08-06T13:32:02.001Z,0.60
2023-08-06T13:35:09.852Z,0.70
2023-08-06T13:38:17.600Z,0.80
2023-08-06T13:41:27.807Z,0.60
2023-08-06T13:44:35.473Z,0.70
2023-08-06T13:47:43.729Z,0.70
2023-08-06T13:50:52.914Z,0.70
2023-08-06T13:54:01.278Z,0.70
2023-08-06T13:57:09.068Z,0.60
2023-08-06T14:00:18.320Z,0.60
2023-08-06T14:03:26.419Z,0.80
2023-08-06T14:06:34.097Z,0.70
2023-08-06T14:09:42.372Z,0.50
2023-08-06T14:13:05.317Z,0.60
2023-08-06T14:15:57.731Z,0.80
2023-08-06T14:19:05.555Z,0.70
2023-08-06T14:22:14.820Z,0.80
2023-08-06T14:25:22.668Z,0.70
2023-08-06T14:28:30.889Z,0.80
2023-08-06T14:31:40.824Z,0.80
2023-08-06T14:34:49.062Z,0.90
2023-08-06T14:37:57.204Z,0.50
2023-08-06T14:41:07.057Z,0.60
2023-08-06T14:44:14.678Z,0.80
2023-08-06T14:47:22.789Z,0.80
2023-08-06T14:50:31.266Z,0.70
2023-08-06T14:53:40.576Z,0.90
2023-08-06T14:56:48.703Z,0.80
2023-08-06T14:59:56.406Z,0.70
2023-08-06T15:03:06.462Z,0.90
2023-08-06T15:06:14.134Z,0.70
2023-08-06T15:09:22.228Z,0.90
2023-08-06T15:12:31.898Z,0.80
2023-08-06T15:15:39.660Z,0.80
2023-08-06T15:18:47.895Z,1.00
2023-08-06T15:21:57.209Z,1.10
2023-08-06T15:25:05.004Z,0.80
2023-08-06T15:28:13.166Z,0.90
2023-08-06T15:31:21.465Z,1.00
2023-08-06T15:34:30.343Z,1.40
2023-08-06T15:37:38.716Z,1.30
2023-08-06T15:40:47.692Z,1.00
2023-08-06T15:43:56.931Z,1.30
2023-08-06T15:47:04.684Z,1.40
2023-08-06T15:50:12.855Z,1.00
2023-08-06T15:53:22.863Z,1.10
2023-08-06T15:56:31.112Z,1.10
2023-08-06T15:59:38.849Z,0.90
2023-08-06T16:02:48.100Z,1.00
2023-08-06T16:05:55.719Z,1.20
2023-08-06T16:09:03.620Z,1.10
2023-08-06T16:12:13.411Z,1.10
2023-08-06T16:15:21.314Z,1.10
2023-08-06T16:18:29.836Z,1.20
2023-08-06T16:21:37.213Z,1.00
2023-08-06T16:24:47.130Z,2.30
2023-08-06T16:27:55.140Z,1.30
2023-08-06T16:31:02.967Z,1.40
2023-08-06T16:34:12.236Z,2.30
2023-08-06T16:37:20.513Z,1.80
2023-08-06T16:40:28.371Z,2.00
2023-08-06T16:43:38.132Z,1.30
2023-08-06T16:46:46.723Z,1.40
2023-08-06T16:49:54.638Z,1.40
2023-08-06T16:53:04.284Z,1.10
2023-08-06T16:56:13.019Z,1.30
2023-08-06T16:59:21.312Z,1.30
2023-08-06T17:02:30.276Z,1.50
2023-08-06T17:05:39.598Z,0.90
2023-08-06T17:08:47.045Z,1.20
2023-08-06T17:11:55.056Z,1.10
2023-08-06T17:15:04.495Z,1.60
2023-08-06T17:18:12.314Z,1.20
2023-08-06T17:21:19.672Z,1.30
2023-08-06T17:24:29.432Z,1.20
2023-08-06T17:27:36.770Z,1.10
2023-08-06T17:30:44.885Z,1.50
2023-08-06T17:33:53.731Z,1.20
2023-08-06T17:37:02.005Z,1.70
2023-08-06T17:40:09.410Z,1.60
2023-08-06T17:43:18.446Z,1.50
2023-08-06T17:46:27.125Z,1.20
2023-08-06T17:49:35.314Z,1.40
2023-08-06T17:52:43.255Z,1.40
2023-08-06T17:55:52.540Z,1.50
2023-08-06T17:59:00.374Z,1.40
2023-08-06T18:02:08.063Z,1.50
2023-08-06T18:05:17.830Z,1.70
2023-08-06T18:08:25.564Z,1.70
2023-08-06T18:11:34.129Z,1.50
2023-08-06T18:14:43.343Z,1.20
2023-08-06T18:17:52.176Z,1.60
2023-08-06T18:21:00.029Z,1.50
2023-08-06T18:24:09.298Z,1.60
2023-08-06T18:27:17.211Z,1.80
2023-08-06T18:30:25.953Z,1.60
2023-08-06T18:33:34.251Z,1.70
2023-08-06T18:36:44.313Z,1.90
2023-08-06T18:39:52.702Z,1.70
2023-08-06T18:43:00.688Z,1.80
2023-08-06T18:46:10.611Z,1.80
2023-08-06T18:49:18.342Z,1.90
2023-08-06T18:52:28.602Z,2.20
2023-08-06T18:55:37.556Z,2.10
2023-08-06T18:58:45.982Z,2.40
2023-08-06T19:01:54.034Z,2.20
2023-08-06T19:05:05.358Z,2.30
2023-08-06T19:08:13.775Z,2.50
2023-08-06T19:11:22.348Z,2.50
2023-08-06T19:14:30.748Z,2.30
2023-08-06T19:17:31.651Z,3.10
2023-08-06T19:20:39.538Z,2.90
2023-08-06T19:23:48.084Z,3.20
2023-08-06T19:26:57.609Z,3.50
2023-08-06T19:30:06.146Z,3.20
2023-08-06T19:33:14.075Z,3.10
2023-08-06T19:36:24.504Z,3.30
2023-08-06T19:39:31.713Z,3.30
2023-08-06T19:42:39.671Z,3.30
2023-08-06T19:45:49.571Z,3.60
2023-08-06T19:48:58.222Z,3.50
2023-08-06T19:52:07.086Z,3.60
2023-08-06T19:55:15.257Z,3.70
2023-08-06T19:58:25.031Z,3.90
2023-08-06T20:01:32.957Z,3.80
2023-08-06T20:04:41.292Z,4.30
2023-08-06T20:07:50.276Z,4.00
2023-08-06T20:10:58.790Z,4.00
2023-08-06T20:14:06.992Z,4.40
2023-08-06T20:17:16.439Z,4.50
2023-08-06T20:20:24.221Z,4.40
2023-08-06T20:23:32.039Z,4.80
2023-08-06T20:26:42.095Z,4.60
2023-08-06T20:29:50.824Z,5.00
2023-08-06T20:32:59.105Z,5.10
2023-08-06T20:36:06.887Z,4.70
2023-08-06T20:39:16.202Z,4.80
2023-08-06T20:42:24.297Z,4.70
2023-08-06T20:45:32.979Z,4.80
2023-08-06T20:48:41.799Z,4.90
2023-08-06T20:51:49.959Z,4.90
2023-08-06T20:54:58.125Z,5.50
2023-08-06T20:58:06.917Z,4.20
2023-08-06T21:01:15.917Z,4.70
2023-08-06T21:04:25.031Z,4.20
2023-08-06T21:07:33.957Z,4.10
2023-08-06T21:10:42.554Z,3.80
2023-08-06T21:13:50.356Z,3.90
2023-08-06T21:16:58.149Z,3.60
2023-08-06T21:20:07.447Z,3.10
2023-08-06T21:23:15.176Z,2.70
2023-08-06T21:26:23.484Z,2.70
2023-08-06T21:29:33.346Z,2.40
2023-08-06T21:32:41.237Z,2.50
2023-08-06T21:35:49.490Z,2.40
2023-08-06T21:38:59.123Z,3.00
2023-08-06T21:42:07.037Z,2.40
2023-08-06T21:45:14.782Z,2.60
2023-08-06T21:48:24.477Z,2.70
2023-08-06T21:51:31.938Z,2.40
2023-08-06T21:54:39.654Z,2.30
2023-08-06T21:57:48.834Z,2.50
2023-08-06T22:00:56.541Z,2.40
2023-08-06T22:04:04.249Z,2.50
2023-08-06T22:07:12.367Z,2.60
2023-08-06T22:10:21.263Z,2.80
2023-08-06T22:13:29.553Z,2.20
2023-08-06T22:16:38.018Z,2.40
2023-08-06T22:19:47.091Z,2.90
2023-08-06T22:22:54.881Z,2.50
2023-08-06T22:26:03.068Z,2.80
2023-08-06T22:29:12.596Z,3.30
2023-08-06T22:32:20.461Z,2.50
2023-08-06T22:35:28.434Z,3.10
2023-08-06T22:38:37.258Z,2.50
2023-08-06T22:41:45.401Z,2.90
2023-08-06T22:44:53.251Z,2.60
2023-08-06T22:48:01.596Z,3.00
2023-08-06T22:51:10.957Z,2.70
2023-08-06T22:54:20.545Z,3.20
2023-08-06T22:57:29.207Z,3.20
2023-08-06T23:00:39.540Z,2.70
2023-08-06T23:03:48.582Z,3.20
2023-08-06T23:06:56.013Z,3.00
2023-08-06T23:10:05.840Z,3.10
2023-08-06T23:13:14.133Z,3.40
2023-08-06T23:16:22.100Z,3.40
2023-08-06T23:19:32.148Z,3.20
2023-08-06T23:22:40.085Z,3.70
2023-08-06T23:25:52.656Z,3.20
2023-08-06T23:28:52.985Z,3.10
2023-08-06T23:32:01.821Z,3.20
2023-08-06T23:35:09.566Z,3.60
2023-08-06T23:38:17.709Z,3.40
2023-08-06T23:41:27.653Z,3.40
2023-08-06T23:44:35.921Z,4.10
2023-08-06T23:47:45.103Z,3.70
2023-08-06T23:50:54.465Z,4.30
2023-08-06T23:54:02.746Z,4.00
2023-08-06T23:57:10.652Z,4.30
